sensor_id;sensor_type;location;lat;lon;timestamp;pressure;altitude;pressure_sealevel;temperature;humidity
59264;BME280;45030;42.720;23.344;2023-12-20T00:02:22;95754.22;;;-4.08;100.00
59264;BME280;45030;42.720;23.344;2023-12-20T00:04:48;95771.13;;;-4.04;100.00
59264;BME280;45030;42.720;23.344;2023-12-20T00:07:13;95785.72;;;-4.05;100.00
59264;BME280;45030;42.720;23.344;2023-12-20T00:09:39;95767.84;;;-4.24;100.00
59264;BME280;45030;42.720;23.344;2023-12-20T00:12:05;95768.03;;;-4.27;100.00
59264;BME280;45030;42.720;23.344;2023-12-20T00:14:30;95767.41;;;-4.32;100.00
59264;BME280;45030;42.720;23.344;2023-12-20T00:16:55;95759.03;;;-4.35;100.00
59264;BME280;45030;42.720;23.344;2023-12-20T00:19:21;95758.53;;;-4.42;100.00
59264;BME280;45030;42.720;23.344;2023-12-20T00:21:46;95716.38;;;-4.55;100.00
59264;BME280;45030;42.720;23.344;2023-12-20T00:24:12;95759.91;;;-4.19;100.00
59264;BME280;45030;42.720;23.344;2023-12-20T00:26:37;95732.81;;;-4.25;100.00
59264;BME280;45030;42.720;23.344;2023-12-20T00:29:02;95731.66;;;-4.19;100.00
59264;BME280;45030;42.720;23.344;2023-12-20T00:31:28;95735.94;;;-4.20;100.00
59264;BME280;45030;42.720;23.344;2023-12-20T00:33:53;95740.44;;;-4.23;100.00
59264;BME280;45030;42.720;23.344;2023-12-20T00:36:18;95739.50;;;-4.22;100.00
59264;BME280;45030;42.720;23.344;2023-12-20T00:38:44;95743.28;;;-4.29;100.00
59264;BME280;45030;42.720;23.344;2023-12-20T00:41:10;95738.50;;;-4.20;100.00
59264;BME280;45030;42.720;23.344;2023-12-20T00:43:35;95735.69;;;-4.31;100.00
59264;BME280;45030;42.720;23.344;2023-12-20T00:46:00;95734.38;;;-4.22;100.00
59264;BME280;45030;42.720;23.344;2023-12-20T00:48:26;95724.03;;;-4.05;100.00
59264;BME280;45030;42.720;23.344;2023-12-20T00:50:57;95717.00;;;-4.01;100.00
59264;BME280;45030;42.720;23.344;2023-12-20T00:53:22;95704.31;;;-4.04;100.00
59264;BME280;45030;42.720;23.344;2023-12-20T00:55:48;95722.16;;;-4.01;100.00
59264;BME280;45030;42.720;23.344;2023-12-20T00:58:13;95701.41;;;-3.98;100.00
59264;BME280;45030;42.720;23.344;2023-12-20T01:03:15;95714.44;;;-3.85;100.00
59264;BME280;45030;42.720;23.344;2023-12-20T01:05:40;95717.00;;;-3.85;100.00
59264;BME280;45030;42.720;23.344;2023-12-20T01:08:06;95707.31;;;-3.80;100.00
59264;BME280;45030;42.720;23.344;2023-12-20T01:10:31;95706.41;;;-3.79;100.00
59264;BME280;45030;42.720;23.344;2023-12-20T01:12:57;95702.66;;;-3.73;100.00
59264;BME280;45030;42.720;23.344;2023-12-20T01:15:22;95700.34;;;-3.94;100.00
59264;BME280;45030;42.720;23.344;2023-12-20T01:17:48;95700.59;;;-3.83;100.00
59264;BME280;45030;42.720;23.344;2023-12-20T01:20:14;95703.50;;;-3.89;100.00
59264;BME280;45030;42.720;23.344;2023-12-20T01:22:40;95703.41;;;-3.87;100.00
59264;BME280;45030;42.720;23.344;2023-12-20T01:25:05;95694.03;;;-3.88;100.00
59264;BME280;45030;42.720;23.344;2023-12-20T01:27:32;95688.31;;;-3.78;100.00
59264;BME280;45030;42.720;23.344;2023-12-20T01:29:57;95682.09;;;-3.73;100.00
59264;BME280;45030;42.720;23.344;2023-12-20T01:32:22;95677.38;;;-3.81;100.00
59264;BME280;45030;42.720;23.344;2023-12-20T01:34:48;95665.53;;;-3.84;100.00
59264;BME280;45030;42.720;23.344;2023-12-20T01:37:13;95669.59;;;-3.80;100.00
59264;BME280;45030;42.720;23.344;2023-12-20T01:39:39;95664.94;;;-3.73;100.00
59264;BME280;45030;42.720;23.344;2023-12-20T01:42:04;95662.19;;;-3.70;100.00
59264;BME280;45030;42.720;23.344;2023-12-20T01:44:30;95645.84;;;-3.69;100.00
59264;BME280;45030;42.720;23.344;2023-12-20T01:46:56;95655.28;;;-3.53;100.00
59264;BME280;45030;42.720;23.344;2023-12-20T01:49:22;95652.03;;;-3.57;100.00
59264;BME280;45030;42.720;23.344;2023-12-20T01:51:48;95654.81;;;-3.60;100.00
59264;BME280;45030;42.720;23.344;2023-12-20T01:54:13;95644.69;;;-3.63;100.00
59264;BME280;45030;42.720;23.344;2023-12-20T01:56:39;95649.91;;;-3.65;100.00
59264;BME280;45030;42.720;23.344;2023-12-20T01:59:06;95643.59;;;-3.59;100.00
59264;BME280;45030;42.720;23.344;2023-12-20T02:01:32;95647.31;;;-3.65;100.00
59264;BME280;45030;42.720;23.344;2023-12-20T02:03:59;95633.50;;;-3.62;100.00
59264;BME280;45030;42.720;23.344;2023-12-20T02:06:29;95639.13;;;-3.71;100.00
59264;BME280;45030;42.720;23.344;2023-12-20T02:08:55;95641.03;;;-3.75;100.00
59264;BME280;45030;42.720;23.344;2023-12-20T02:11:21;95634.22;;;-3.60;100.00
59264;BME280;45030;42.720;23.344;2023-12-20T02:13:47;95630.56;;;-3.56;100.00
59264;BME280;45030;42.720;23.344;2023-12-20T02:16:12;95628.66;;;-3.52;100.00
59264;BME280;45030;42.720;23.344;2023-12-20T02:18:39;95628.91;;;-3.57;100.00
59264;BME280;45030;42.720;23.344;2023-12-20T02:21:05;95621.44;;;-3.62;100.00
59264;BME280;45030;42.720;23.344;2023-12-20T02:23:30;95619.97;;;-3.66;100.00
59264;BME280;45030;42.720;23.344;2023-12-20T02:25:56;95615.31;;;-3.59;100.00
59264;BME280;45030;42.720;23.344;2023-12-20T02:28:21;95606.41;;;-3.53;100.00
59264;BME280;45030;42.720;23.344;2023-12-20T02:30:47;95614.13;;;-3.53;100.00
59264;BME280;45030;42.720;23.344;2023-12-20T02:33:15;95605.88;;;-3.59;100.00
59264;BME280;45030;42.720;23.344;2023-12-20T02:35:40;95606.75;;;-3.60;100.00
59264;BME280;45030;42.720;23.344;2023-12-20T02:38:06;95598.44;;;-3.49;100.00
59264;BME280;45030;42.720;23.344;2023-12-20T02:40:32;95599.34;;;-3.50;100.00
59264;BME280;45030;42.720;23.344;2023-12-20T02:42:57;95605.13;;;-3.61;100.00
59264;BME280;45030;42.720;23.344;2023-12-20T02:45:22;95595.03;;;-3.49;100.00
59264;BME280;45030;42.720;23.344;2023-12-20T02:47:48;95595.88;;;-3.49;100.00
59264;BME280;45030;42.720;23.344;2023-12-20T02:50:13;95596.69;;;-3.48;100.00
59264;BME280;45030;42.720;23.344;2023-12-20T02:52:38;95600.00;;;-3.46;100.00
59264;BME280;45030;42.720;23.344;2023-12-20T02:55:04;95593.38;;;-3.50;100.00
59264;BME280;45030;42.720;23.344;2023-12-20T02:57:30;95593.03;;;-3.44;100.00
59264;BME280;45030;42.720;23.344;2023-12-20T02:59:57;95597.25;;;-3.43;100.00
59264;BME280;45030;42.720;23.344;2023-12-20T03:02:22;95598.66;;;-3.68;100.00
59264;BME280;45030;42.720;23.344;2023-12-20T03:04:47;95593.78;;;-3.88;100.00
59264;BME280;45030;42.720;23.344;2023-12-20T03:07:13;95595.28;;;-3.84;100.00
59264;BME280;45030;42.720;23.344;2023-12-20T03:09:38;95594.59;;;-3.72;100.00
59264;BME280;45030;42.720;23.344;2023-12-20T03:12:04;95589.28;;;-3.69;100.00
59264;BME280;45030;42.720;23.344;2023-12-20T03:14:29;95584.78;;;-3.65;100.00
59264;BME280;45030;42.720;23.344;2023-12-20T03:16:55;95580.97;;;-3.58;100.00
59264;BME280;45030;42.720;23.344;2023-12-20T03:19:21;95588.59;;;-3.56;100.00
59264;BME280;45030;42.720;23.344;2023-12-20T03:21:46;95579.69;;;-3.81;100.00
59264;BME280;45030;42.720;23.344;2023-12-20T03:24:12;95583.31;;;-3.69;100.00
59264;BME280;45030;42.720;23.344;2023-12-20T03:26:37;95569.44;;;-3.67;100.00
59264;BME280;45030;42.720;23.344;2023-12-20T03:29:03;95574.06;;;-3.58;100.00
59264;BME280;45030;42.720;23.344;2023-12-20T03:31:28;95573.25;;;-3.58;100.00
59264;BME280;45030;42.720;23.344;2023-12-20T03:33:53;95570.06;;;-3.78;100.00
59264;BME280;45030;42.720;23.344;2023-12-20T03:36:20;95567.53;;;-3.93;100.00
59264;BME280;45030;42.720;23.344;2023-12-20T03:38:45;95571.25;;;-3.83;100.00
59264;BME280;45030;42.720;23.344;2023-12-20T03:41:11;95574.00;;;-4.02;100.00
59264;BME280;45030;42.720;23.344;2023-12-20T03:43:36;95569.69;;;-4.02;100.00
59264;BME280;45030;42.720;23.344;2023-12-20T03:46:03;95563.41;;;-4.12;100.00
59264;BME280;45030;42.720;23.344;2023-12-20T03:48:29;95567.13;;;-4.02;100.00
59264;BME280;45030;42.720;23.344;2023-12-20T03:50:55;95546.25;;;-4.11;100.00
59264;BME280;45030;42.720;23.344;2023-12-20T03:53:20;95567.34;;;-3.90;100.00
59264;BME280;45030;42.720;23.344;2023-12-20T03:55:45;95558.00;;;-3.91;100.00
59264;BME280;45030;42.720;23.344;2023-12-20T03:58:11;95570.09;;;-3.93;100.00
59264;BME280;45030;42.720;23.344;2023-12-20T04:00:38;95568.69;;;-3.99;100.00
59264;BME280;45030;42.720;23.344;2023-12-20T04:03:03;95560.47;;;-3.90;100.00
59264;BME280;45030;42.720;23.344;2023-12-20T04:05:29;95557.47;;;-3.82;100.00
59264;BME280;45030;42.720;23.344;2023-12-20T04:07:54;95552.19;;;-3.95;100.00
59264;BME280;45030;42.720;23.344;2023-12-20T04:10:19;95546.97;;;-3.93;100.00
59264;BME280;45030;42.720;23.344;2023-12-20T04:12:45;95539.06;;;-3.90;100.00
59264;BME280;45030;42.720;23.344;2023-12-20T04:15:10;95548.53;;;-3.91;100.00
59264;BME280;45030;42.720;23.344;2023-12-20T04:17:37;95543.25;;;-4.04;100.00
59264;BME280;45030;42.720;23.344;2023-12-20T04:20:02;95544.50;;;-4.11;100.00
59264;BME280;45030;42.720;23.344;2023-12-20T04:22:28;95523.72;;;-4.22;100.00
59264;BME280;45030;42.720;23.344;2023-12-20T04:24:53;95537.41;;;-4.38;100.00
59264;BME280;45030;42.720;23.344;2023-12-20T04:27:19;95541.22;;;-4.45;100.00
59264;BME280;45030;42.720;23.344;2023-12-20T04:29:44;95530.03;;;-4.60;100.00
59264;BME280;45030;42.720;23.344;2023-12-20T04:32:09;95533.00;;;-4.51;100.00
59264;BME280;45030;42.720;23.344;2023-12-20T04:34:35;95531.72;;;-4.59;100.00
59264;BME280;45030;42.720;23.344;2023-12-20T04:37:00;95531.72;;;-4.59;100.00
59264;BME280;45030;42.720;23.344;2023-12-20T04:39:27;95533.28;;;-4.56;100.00
59264;BME280;45030;42.720;23.344;2023-12-20T04:41:52;95524.56;;;-4.38;100.00
59264;BME280;45030;42.720;23.344;2023-12-20T04:44:18;95531.59;;;-4.41;100.00
59264;BME280;45030;42.720;23.344;2023-12-20T04:46:43;95516.84;;;-4.38;100.00
59264;BME280;45030;42.720;23.344;2023-12-20T04:49:09;95523.66;;;-4.37;100.00
59264;BME280;45030;42.720;23.344;2023-12-20T04:51:34;95524.72;;;-4.25;100.00
59264;BME280;45030;42.720;23.344;2023-12-20T04:54:00;95520.72;;;-4.14;100.00
59264;BME280;45030;42.720;23.344;2023-12-20T04:56:25;95522.06;;;-4.39;100.00
59264;BME280;45030;42.720;23.344;2023-12-20T04:58:51;95522.50;;;-4.31;100.00
59264;BME280;45030;42.720;23.344;2023-12-20T05:01:16;95526.63;;;-4.28;100.00
59264;BME280;45030;42.720;23.344;2023-12-20T05:03:42;95517.69;;;-4.21;100.00
59264;BME280;45030;42.720;23.344;2023-12-20T05:06:07;95522.16;;;-4.25;100.00
59264;BME280;45030;42.720;23.344;2023-12-20T05:08:33;95513.75;;;-4.12;100.00
59264;BME280;45030;42.720;23.344;2023-12-20T05:10:58;95508.81;;;-4.15;100.00
59264;BME280;45030;42.720;23.344;2023-12-20T05:13:23;95489.56;;;-4.24;100.00
59264;BME280;45030;42.720;23.344;2023-12-20T05:15:49;95508.28;;;-4.06;100.00
59264;BME280;45030;42.720;23.344;2023-12-20T05:18:14;95503.16;;;-4.22;100.00
59264;BME280;45030;42.720;23.344;2023-12-20T05:20:40;95513.63;;;-4.25;100.00
59264;BME280;45030;42.720;23.344;2023-12-20T05:23:06;95503.66;;;-4.31;100.00
59264;BME280;45030;42.720;23.344;2023-12-20T05:25:32;95501.44;;;-4.38;100.00
59264;BME280;45030;42.720;23.344;2023-12-20T05:27:57;95501.19;;;-4.49;100.00
59264;BME280;45030;42.720;23.344;2023-12-20T05:30:22;95498.94;;;-4.39;100.00
59264;BME280;45030;42.720;23.344;2023-12-20T05:32:48;95491.13;;;-4.22;100.00
59264;BME280;45030;42.720;23.344;2023-12-20T05:35:13;95468.69;;;-4.18;100.00
59264;BME280;45030;42.720;23.344;2023-12-20T05:37:39;95481.41;;;-4.01;100.00
59264;BME280;45030;42.720;23.344;2023-12-20T05:40:05;95493.50;;;-4.03;100.00
59264;BME280;45030;42.720;23.344;2023-12-20T05:42:30;95493.66;;;-4.06;100.00
59264;BME280;45030;42.720;23.344;2023-12-20T05:44:56;95484.63;;;-3.97;100.00
59264;BME280;45030;42.720;23.344;2023-12-20T05:47:21;95479.41;;;-3.95;100.00
59264;BME280;45030;42.720;23.344;2023-12-20T05:49:47;95477.56;;;-3.93;100.00
59264;BME280;45030;42.720;23.344;2023-12-20T05:52:12;95477.28;;;-4.03;100.00
59264;BME280;45030;42.720;23.344;2023-12-20T05:54:37;95474.78;;;-4.05;100.00
59264;BME280;45030;42.720;23.344;2023-12-20T05:57:03;95479.31;;;-4.24;100.00
59264;BME280;45030;42.720;23.344;2023-12-20T05:59:28;95473.19;;;-4.38;100.00
59264;BME280;45030;42.720;23.344;2023-12-20T06:01:54;95470.81;;;-4.41;100.00
59264;BME280;45030;42.720;23.344;2023-12-20T06:04:19;95471.75;;;-4.27;100.00
59264;BME280;45030;42.720;23.344;2023-12-20T06:06:44;95470.34;;;-4.17;100.00
59264;BME280;45030;42.720;23.344;2023-12-20T06:09:10;95455.75;;;-4.17;100.00
59264;BME280;45030;42.720;23.344;2023-12-20T06:11:36;95449.97;;;-4.20;100.00
59264;BME280;45030;42.720;23.344;2023-12-20T06:14:01;95464.34;;;-4.02;100.00
59264;BME280;45030;42.720;23.344;2023-12-20T06:16:27;95470.81;;;-3.80;100.00
59264;BME280;45030;42.720;23.344;2023-12-20T06:18:52;95474.66;;;-3.73;100.00
59264;BME280;45030;42.720;23.344;2023-12-20T06:21:18;95472.66;;;-3.68;100.00
59264;BME280;45030;42.720;23.344;2023-12-20T06:23:44;95473.41;;;-3.66;100.00
59264;BME280;45030;42.720;23.344;2023-12-20T06:26:09;95475.75;;;-3.91;100.00
59264;BME280;45030;42.720;23.344;2023-12-20T06:28:34;95475.97;;;-4.10;100.00
59264;BME280;45030;42.720;23.344;2023-12-20T06:31:00;95424.34;;;-4.52;100.00
59264;BME280;45030;42.720;23.344;2023-12-20T06:33:26;95452.50;;;-4.50;100.00
59264;BME280;45030;42.720;23.344;2023-12-20T06:35:51;95472.75;;;-4.30;100.00
59264;BME280;45030;42.720;23.344;2023-12-20T06:38:18;95471.56;;;-4.39;100.00
59264;BME280;45030;42.720;23.344;2023-12-20T06:40:43;95466.66;;;-4.59;100.00
59264;BME280;45030;42.720;23.344;2023-12-20T06:43:09;95457.34;;;-4.60;100.00
59264;BME280;45030;42.720;23.344;2023-12-20T06:45:34;95448.94;;;-4.48;100.00
59264;BME280;45030;42.720;23.344;2023-12-20T06:47:59;95446.19;;;-4.29;100.00
59264;BME280;45030;42.720;23.344;2023-12-20T06:50:25;95464.44;;;-3.89;100.00
59264;BME280;45030;42.720;23.344;2023-12-20T06:52:50;95461.06;;;-3.75;100.00
59264;BME280;45030;42.720;23.344;2023-12-20T06:55:17;95452.31;;;-3.56;100.00
59264;BME280;45030;42.720;23.344;2023-12-20T06:57:42;95452.66;;;-3.48;100.00
59264;BME280;45030;42.720;23.344;2023-12-20T07:00:08;95438.09;;;-3.92;100.00
59264;BME280;45030;42.720;23.344;2023-12-20T07:02:35;95443.38;;;-3.80;100.00
59264;BME280;45030;42.720;23.344;2023-12-20T07:05:01;95430.94;;;-3.87;100.00
59264;BME280;45030;42.720;23.344;2023-12-20T07:07:26;95444.03;;;-3.47;100.00
59264;BME280;45030;42.720;23.344;2023-12-20T07:09:52;95436.13;;;-3.30;100.00
59264;BME280;45030;42.720;23.344;2023-12-20T07:12:17;95452.13;;;-3.25;100.00
59264;BME280;45030;42.720;23.344;2023-12-20T07:14:45;95448.16;;;-3.16;100.00
59264;BME280;45030;42.720;23.344;2023-12-20T07:17:10;95434.22;;;-2.85;100.00
59264;BME280;45030;42.720;23.344;2023-12-20T07:19:39;95417.97;;;-2.85;100.00
59264;BME280;45030;42.720;23.344;2023-12-20T07:22:05;95440.19;;;-2.70;100.00
59264;BME280;45030;42.720;23.344;2023-12-20T07:24:30;95436.19;;;-2.61;100.00
59264;BME280;45030;42.720;23.344;2023-12-20T07:26:56;95431.44;;;-2.40;100.00
59264;BME280;45030;42.720;23.344;2023-12-20T07:29:21;95421.19;;;-2.27;100.00
59264;BME280;45030;42.720;23.344;2023-12-20T07:31:47;95421.53;;;-2.33;100.00
59264;BME280;45030;42.720;23.344;2023-12-20T07:34:12;95419.50;;;-2.28;100.00
59264;BME280;45030;42.720;23.344;2023-12-20T07:36:37;95410.13;;;-2.29;100.00
59264;BME280;45030;42.720;23.344;2023-12-20T07:39:03;95419.94;;;-2.22;100.00
59264;BME280;45030;42.720;23.344;2023-12-20T07:41:28;95424.06;;;-2.19;100.00
59264;BME280;45030;42.720;23.344;2023-12-20T07:43:53;95422.72;;;-2.12;100.00
59264;BME280;45030;42.720;23.344;2023-12-20T07:46:21;95418.03;;;-2.05;100.00
59264;BME280;45030;42.720;23.344;2023-12-20T07:48:48;95412.56;;;-2.01;100.00
59264;BME280;45030;42.720;23.344;2023-12-20T07:51:13;95414.72;;;-1.94;100.00
59264;BME280;45030;42.720;23.344;2023-12-20T07:53:38;95402.97;;;-1.73;100.00
59264;BME280;45030;42.720;23.344;2023-12-20T07:56:24;95406.19;;;-1.56;100.00
59264;BME280;45030;42.720;23.344;2023-12-20T07:58:50;95416.09;;;-1.50;100.00
59264;BME280;45030;42.720;23.344;2023-12-20T08:01:15;95407.94;;;-1.57;100.00
59264;BME280;45030;42.720;23.344;2023-12-20T08:03:41;95408.66;;;-1.42;100.00
59264;BME280;45030;42.720;23.344;2023-12-20T08:06:06;95405.88;;;-1.52;100.00
59264;BME280;45030;42.720;23.344;2023-12-20T08:08:32;95412.16;;;-1.43;100.00
59264;BME280;45030;42.720;23.344;2023-12-20T08:10:57;95404.63;;;-1.46;100.00
59264;BME280;45030;42.720;23.344;2023-12-20T08:13:25;95413.00;;;-1.43;100.00
59264;BME280;45030;42.720;23.344;2023-12-20T08:15:52;95399.69;;;-1.62;100.00
59264;BME280;45030;42.720;23.344;2023-12-20T08:18:17;95396.19;;;-1.48;100.00
59264;BME280;45030;42.720;23.344;2023-12-20T08:20:42;95390.06;;;-1.34;100.00
59264;BME280;45030;42.720;23.344;2023-12-20T08:23:08;95387.16;;;-1.17;100.00
59264;BME280;45030;42.720;23.344;2023-12-20T08:25:33;95383.72;;;-1.05;100.00
59264;BME280;45030;42.720;23.344;2023-12-20T08:27:59;95390.22;;;-0.99;100.00
59264;BME280;45030;42.720;23.344;2023-12-20T08:30:24;95385.38;;;-1.04;100.00
59264;BME280;45030;42.720;23.344;2023-12-20T08:32:50;95363.94;;;-0.93;100.00
59264;BME280;45030;42.720;23.344;2023-12-20T08:35:15;95377.00;;;-0.70;100.00
59264;BME280;45030;42.720;23.344;2023-12-20T08:37:41;95376.44;;;-0.63;100.00
59264;BME280;45030;42.720;23.344;2023-12-20T08:40:06;95367.19;;;-0.54;100.00
59264;BME280;45030;42.720;23.344;2023-12-20T08:42:32;95364.56;;;-0.41;100.00
59264;BME280;45030;42.720;23.344;2023-12-20T08:44:58;95354.88;;;-0.50;100.00
59264;BME280;45030;42.720;23.344;2023-12-20T08:47:26;95354.91;;;-0.74;100.00
59264;BME280;45030;42.720;23.344;2023-12-20T08:49:52;95356.06;;;-1.15;100.00
59264;BME280;45030;42.720;23.344;2023-12-20T08:52:24;95354.50;;;-1.18;100.00
59264;BME280;45030;42.720;23.344;2023-12-20T08:54:50;95344.78;;;-1.02;100.00
59264;BME280;45030;42.720;23.344;2023-12-20T08:57:22;95347.81;;;-0.84;100.00
59264;BME280;45030;42.720;23.344;2023-12-20T08:59:49;95342.16;;;-0.65;100.00
59264;BME280;45030;42.720;23.344;2023-12-20T09:02:14;95335.19;;;-0.88;100.00
59264;BME280;45030;42.720;23.344;2023-12-20T09:04:40;95311.25;;;-0.90;100.00
59264;BME280;45030;42.720;23.344;2023-12-20T09:07:05;95311.00;;;-0.74;100.00
59264;BME280;45030;42.720;23.344;2023-12-20T09:09:32;95305.59;;;-0.71;100.00
59264;BME280;45030;42.720;23.344;2023-12-20T09:11:58;95297.88;;;-0.60;100.00
59264;BME280;45030;42.720;23.344;2023-12-20T09:14:24;95288.00;;;-0.66;100.00
59264;BME280;45030;42.720;23.344;2023-12-20T09:16:49;95277.22;;;-0.60;100.00
59264;BME280;45030;42.720;23.344;2023-12-20T09:19:17;95287.13;;;-0.43;100.00
59264;BME280;45030;42.720;23.344;2023-12-20T09:21:42;95256.47;;;-0.36;100.00
59264;BME280;45030;42.720;23.344;2023-12-20T09:24:07;95268.78;;;-0.40;100.00
59264;BME280;45030;42.720;23.344;2023-12-20T09:26:34;95265.56;;;-0.19;100.00
59264;BME280;45030;42.720;23.344;2023-12-20T09:28:59;95256.50;;;-0.25;100.00
59264;BME280;45030;42.720;23.344;2023-12-20T09:31:25;95254.41;;;-0.19;100.00
59264;BME280;45030;42.720;23.344;2023-12-20T09:33:50;95254.06;;;-0.04;100.00
59264;BME280;45030;42.720;23.344;2023-12-20T09:36:15;95246.41;;;-0.16;100.00
59264;BME280;45030;42.720;23.344;2023-12-20T09:38:41;95240.94;;;-0.58;100.00
59264;BME280;45030;42.720;23.344;2023-12-20T09:41:07;95233.00;;;-0.80;100.00
59264;BME280;45030;42.720;23.344;2023-12-20T09:43:35;95229.31;;;-0.53;100.00
59264;BME280;45030;42.720;23.344;2023-12-20T09:46:05;95232.16;;;-0.22;100.00
59264;BME280;45030;42.720;23.344;2023-12-20T09:48:31;95217.81;;;-0.26;100.00
59264;BME280;45030;42.720;23.344;2023-12-20T09:50:57;95213.84;;;0.04;100.00
59264;BME280;45030;42.720;23.344;2023-12-20T09:53:22;95221.22;;;0.31;100.00
59264;BME280;45030;42.720;23.344;2023-12-20T09:55:57;95228.28;;;0.51;100.00
59264;BME280;45030;42.720;23.344;2023-12-20T09:58:24;95213.28;;;0.66;100.00
59264;BME280;45030;42.720;23.344;2023-12-20T10:00:50;95203.00;;;0.76;100.00
59264;BME280;45030;42.720;23.344;2023-12-20T10:03:15;95198.13;;;0.94;100.00
59264;BME280;45030;42.720;23.344;2023-12-20T10:05:43;95203.56;;;0.91;100.00
59264;BME280;45030;42.720;23.344;2023-12-20T10:08:09;95179.78;;;0.86;100.00
59264;BME280;45030;42.720;23.344;2023-12-20T10:10:35;95185.94;;;1.06;100.00
59264;BME280;45030;42.720;23.344;2023-12-20T10:13:02;95183.00;;;1.31;100.00
59264;BME280;45030;42.720;23.344;2023-12-20T10:15:28;95171.00;;;1.30;100.00
59264;BME280;45030;42.720;23.344;2023-12-20T10:17:53;95183.41;;;0.94;100.00
59264;BME280;45030;42.720;23.344;2023-12-20T10:20:20;95168.44;;;0.98;100.00
59264;BME280;45030;42.720;23.344;2023-12-20T10:22:45;95167.69;;;0.43;100.00
59264;BME280;45030;42.720;23.344;2023-12-20T10:25:11;95156.38;;;0.00;100.00
59264;BME280;45030;42.720;23.344;2023-12-20T10:27:37;95163.97;;;0.24;100.00
59264;BME280;45030;42.720;23.344;2023-12-20T10:30:02;95156.81;;;0.60;100.00
59264;BME280;45030;42.720;23.344;2023-12-20T10:32:28;95147.81;;;0.75;100.00
59264;BME280;45030;42.720;23.344;2023-12-20T10:34:55;95142.41;;;1.21;100.00
59264;BME280;45030;42.720;23.344;2023-12-20T10:37:20;95122.31;;;1.13;100.00
59264;BME280;45030;42.720;23.344;2023-12-20T10:39:53;95134.88;;;1.60;100.00
59264;BME280;45030;42.720;23.344;2023-12-20T10:42:28;95128.16;;;1.97;100.00
59264;BME280;45030;42.720;23.344;2023-12-20T10:44:54;95106.00;;;2.24;100.00
59264;BME280;45030;42.720;23.344;2023-12-20T10:47:20;95124.72;;;1.87;100.00
59264;BME280;45030;42.720;23.344;2023-12-20T10:49:46;95117.56;;;1.70;100.00
59264;BME280;45030;42.720;23.344;2023-12-20T10:52:13;95109.78;;;2.10;100.00
59264;BME280;45030;42.720;23.344;2023-12-20T10:54:41;95106.66;;;2.26;100.00
59264;BME280;45030;42.720;23.344;2023-12-20T10:57:07;95102.19;;;2.48;100.00
59264;BME280;45030;42.720;23.344;2023-12-20T10:59:39;95103.13;;;2.56;100.00
59264;BME280;45030;42.720;23.344;2023-12-20T11:02:05;95105.47;;;2.60;100.00
59264;BME280;45030;42.720;23.344;2023-12-20T11:05:25;95094.94;;;2.42;100.00
59264;BME280;45030;42.720;23.344;2023-12-20T11:07:29;95096.47;;;2.64;100.00
59264;BME280;45030;42.720;23.344;2023-12-20T11:10:00;95082.66;;;2.53;100.00
59264;BME280;45030;42.720;23.344;2023-12-20T11:12:37;95069.00;;;2.61;100.00
59264;BME280;45030;42.720;23.344;2023-12-20T11:15:06;95068.44;;;2.48;100.00
59264;BME280;45030;42.720;23.344;2023-12-20T11:17:32;95061.19;;;2.71;100.00
59264;BME280;45030;42.720;23.344;2023-12-20T11:22:29;95050.81;;;2.71;100.00
59264;BME280;45030;42.720;23.344;2023-12-20T11:25:02;95050.00;;;2.41;100.00
59264;BME280;45030;42.720;23.344;2023-12-20T11:27:30;95052.56;;;2.51;100.00
59264;BME280;45030;42.720;23.344;2023-12-20T11:29:57;95040.97;;;2.16;100.00
59264;BME280;45030;42.720;23.344;2023-12-20T11:34:55;95030.31;;;2.38;100.00
59264;BME280;45030;42.720;23.344;2023-12-20T11:37:21;95015.69;;;2.08;100.00
59264;BME280;45030;42.720;23.344;2023-12-20T11:40:00;95010.50;;;2.18;100.00
59264;BME280;45030;42.720;23.344;2023-12-20T11:42:27;95006.81;;;2.11;100.00
59264;BME280;45030;42.720;23.344;2023-12-20T11:44:53;95006.13;;;2.09;100.00
59264;BME280;45030;42.720;23.344;2023-12-20T11:47:18;95001.75;;;2.19;100.00
59264;BME280;45030;42.720;23.344;2023-12-20T11:49:47;94995.47;;;2.02;100.00
59264;BME280;45030;42.720;23.344;2023-12-20T11:52:13;94988.22;;;2.06;100.00
59264;BME280;45030;42.720;23.344;2023-12-20T11:54:39;94990.97;;;2.04;100.00
59264;BME280;45030;42.720;23.344;2023-12-20T11:57:04;94975.25;;;2.06;100.00
59264;BME280;45030;42.720;23.344;2023-12-20T11:59:31;94971.84;;;2.05;100.00
59264;BME280;45030;42.720;23.344;2023-12-20T12:01:56;94975.94;;;1.98;100.00
59264;BME280;45030;42.720;23.344;2023-12-20T12:04:26;94961.75;;;2.02;100.00
59264;BME280;45030;42.720;23.344;2023-12-20T12:06:51;94955.03;;;2.00;100.00
59264;BME280;45030;42.720;23.344;2023-12-20T12:09:17;94956.94;;;1.88;100.00
59264;BME280;45030;42.720;23.344;2023-12-20T12:11:42;94952.41;;;1.80;100.00
59264;BME280;45030;42.720;23.344;2023-12-20T12:14:08;94937.13;;;1.67;100.00
59264;BME280;45030;42.720;23.344;2023-12-20T12:16:33;94946.16;;;1.63;100.00
59264;BME280;45030;42.720;23.344;2023-12-20T12:18:59;94943.94;;;1.58;100.00
59264;BME280;45030;42.720;23.344;2023-12-20T12:21:25;94943.41;;;1.55;100.00
59264;BME280;45030;42.720;23.344;2023-12-20T12:23:51;94929.75;;;1.43;100.00
59264;BME280;45030;42.720;23.344;2023-12-20T12:26:16;94932.84;;;1.37;100.00
59264;BME280;45030;42.720;23.344;2023-12-20T12:28:42;94928.91;;;1.43;100.00
59264;BME280;45030;42.720;23.344;2023-12-20T12:31:09;94932.72;;;1.48;100.00
59264;BME280;45030;42.720;23.344;2023-12-20T12:33:38;94930.69;;;1.42;100.00
59264;BME280;45030;42.720;23.344;2023-12-20T12:36:03;94939.28;;;1.52;100.00
59264;BME280;45030;42.720;23.344;2023-12-20T12:38:32;94933.47;;;1.80;100.00
59264;BME280;45030;42.720;23.344;2023-12-20T12:40:57;94937.56;;;2.02;100.00
59264;BME280;45030;42.720;23.344;2023-12-20T12:43:23;94933.88;;;2.24;100.00
59264;BME280;45030;42.720;23.344;2023-12-20T12:45:49;94934.69;;;2.34;100.00